createdAt,value
2023-01-01T00:21:30.651Z,0.03
2023-01-01T00:28:47.811Z,0.02
2023-01-01T00:33:52.198Z,0.03
2023-01-01T00:36:03.271Z,0.02
2023-01-01T02:32:04.657Z,0.01
2023-01-01T02:34:27.110Z,0.02
2023-01-01T03:31:00.494Z,0.01
2023-01-01T03:40:31.736Z,0.02
2023-01-01T03:52:37.075Z,0.01
2023-01-01T04:00:48.727Z,0.02
2023-01-01T04:05:05.540Z,0.01
2023-01-01T04:17:56.766Z,0.02
2023-01-01T04:20:38.711Z,0.01
2023-01-01T04:32:42.463Z,0.02
2023-01-01T04:45:08.732Z,0.01
2023-01-01T04:54:37.914Z,0.02
2023-01-01T05:04:31.516Z,0.01
2023-01-01T05:21:39.170Z,0.02
2023-01-01T05:31:37.792Z,0.01
2023-01-01T05:44:01.892Z,0.02
2023-01-01T05:46:50.924Z,0.01
2023-01-01T06:01:57.262Z,0.02
2023-01-01T06:04:10.142Z,0.01
2023-01-01T06:15:53.994Z,0.02
2023-01-01T06:23:51.984Z,0.03
2023-01-01T06:26:03.148Z,0.02
2023-01-01T06:30:46.011Z,0.03
2023-01-01T06:33:17.441Z,0.04
2023-01-01T06:35:34.731Z,0.05
2023-01-01T06:37:38.422Z,0.07
2023-01-01T06:40:29.851Z,0.11
2023-01-01T06:43:07.488Z,0.15
2023-01-01T06:45:31.059Z,0.19
2023-01-01T06:47:40.523Z,0.26
2023-01-01T06:50:38.295Z,0.4
2023-01-01T06:53:22.133Z,0.62
2023-01-01T06:55:56.884Z,0.93
2023-01-01T06:58:07.357Z,1.29
2023-01-01T07:00:08.974Z,1.76
2023-01-01T07:02:59.245Z,2.77
2023-01-01T07:05:35.027Z,4.2
2023-01-01T07:07:56.825Z,5.44
2023-01-01T07:10:04.277Z,7.56
2023-01-01T07:13:00.540Z,11.03
2023-01-01T07:15:42.538Z,16.35
2023-01-01T07:18:10.893Z,22.74
2023-01-01T07:20:24.600Z,26.91
2023-01-01T07:22:24.380Z,31.18
2023-01-01T07:25:12.789Z,37.84
2023-01-01T07:30:07.213Z,47.96
2023-01-01T07:32:13.374Z,52.6
2023-01-01T07:35:07.897Z,61.44
2023-01-01T07:37:48.242Z,72.12
2023-01-01T07:40:14.350Z,83.88
2023-01-01T07:42:26.603Z,95.32
2023-01-01T07:44:24.688Z,106.36
2023-01-01T07:47:11.187Z,126.88
2023-01-01T07:49:43.736Z,151.8
2023-01-01T07:52:01.980Z,183.1
2023-01-01T07:54:07.533Z,205.6
2023-01-01T07:56:58.914Z,243.8
2023-01-01T07:59:37.339Z,244.9
2023-01-01T08:02:01.363Z,253.2
2023-01-01T08:04:11.703Z,261.3
2023-01-01T08:07:10.436Z,280.8
2023-01-01T08:09:55.060Z,297.3
2023-01-01T08:12:25.510Z,319.5
2023-01-01T08:14:42.147Z,347
2023-01-01T08:16:44.607Z,368.8
2023-01-01T08:19:35.414Z,465.7
2023-01-01T08:22:12.240Z,535.8
2023-01-01T08:24:34.931Z,507.8
2023-01-01T08:26:43.433Z,532.9
2023-01-01T08:29:40.516Z,535.8
2023-01-01T08:32:23.429Z,546
2023-01-01T08:34:52.243Z,576
2023-01-01T08:37:06.863Z,594.5
2023-01-01T08:39:07.574Z,618.2
2023-01-01T08:41:56.575Z,697.9
2023-01-01T08:44:31.529Z,741.1
2023-01-01T08:46:52.565Z,778.8
2023-01-01T08:48:59.282Z,806
2023-01-01T08:51:54.468Z,761.9
2023-01-01T08:54:35.168Z,757.7
2023-01-01T08:57:02.126Z,703
2023-01-01T08:59:14.982Z,762.8
2023-01-01T09:01:13.939Z,811.8
2023-01-01T09:04:01.295Z,824
2023-01-01T09:06:15.317Z,819.8
2023-01-01T09:08:15.209Z,765.7
2023-01-01T09:11:03.440Z,731.8
2023-01-01T09:13:37.808Z,743.3
2023-01-01T09:15:57.931Z,745.2
2023-01-01T09:18:03.854Z,796.4
2023-01-01T09:20:58.396Z,908.4
2023-01-01T09:23:38.705Z,877.7
2023-01-01T09:26:04.865Z,818.8
2023-01-01T09:28:20.476Z,790
2023-01-01T09:30:15.508Z,730.2
2023-01-01T09:33:01.914Z,762.8
2023-01-01T09:35:34.195Z,774
2023-01-01T09:37:52.580Z,770.2
2023-01-01T09:39:56.863Z,731.8
2023-01-01T09:42:49.554Z,749.4
2023-01-01T09:45:27.748Z,748.8
2023-01-01T09:47:52.176Z,759.3
2023-01-01T09:50:02.439Z,778.2
2023-01-01T09:53:01.186Z,813.1
2023-01-01T09:55:45.781Z,850.5
2023-01-01T09:58:16.229Z,1001.2
2023-01-01T10:00:32.506Z,876.4
2023-01-01T10:02:34.845Z,835.8
2023-01-01T10:05:25.559Z,822.4
2023-01-01T10:08:02.116Z,904.9
2023-01-01T10:10:24.691Z,978.5
2023-01-01T10:12:33.177Z,972.1
2023-01-01T10:15:29.981Z,1066.2
2023-01-01T10:18:12.808Z,1048
2023-01-01T10:20:41.748Z,999
2023-01-01T10:22:56.193Z,1151.3
2023-01-01T10:24:56.856Z,990.7
2023-01-01T10:27:45.712Z,879.3
2023-01-01T10:30:20.474Z,831
2023-01-01T10:32:41.186Z,906.8
2023-01-01T10:34:47.969Z,900.4
2023-01-01T10:37:42.732Z,870.4
2023-01-01T10:40:23.688Z,930.5
2023-01-01T10:42:50.736Z,895.6
2023-01-01T10:45:03.583Z,856.9
2023-01-01T10:47:02.320Z,829.7
2023-01-01T10:49:49.580Z,798.4
2023-01-01T10:52:22.699Z,702.7
2023-01-01T10:54:41.710Z,575.5
2023-01-01T10:56:46.759Z,537.2
2023-01-01T10:59:40.117Z,658.5
2023-01-01T11:02:19.749Z,737.6
2023-01-01T11:04:44.347Z,777.2
2023-01-01T11:06:55.481Z,884.8
2023-01-01T11:08:52.536Z,1124.8
2023-01-01T11:11:37.778Z,1322.8
2023-01-01T11:14:09.127Z,1400.3
2023-01-01T11:16:26.508Z,1449.6
2023-01-01T11:18:29.332Z,1434.2
2023-01-01T11:21:20.899Z,1225.2
2023-01-01T11:23:58.386Z,1192
2023-01-01T11:26:21.729Z,1226.2
2023-01-01T11:28:30.830Z,1216.9
2023-01-01T11:31:28.710Z,1387.5
2023-01-01T11:34:12.323Z,1354.8
2023-01-01T11:36:41.855Z,1408
2023-01-01T11:38:57.366Z,1368.3
2023-01-01T11:40:58.867Z,1356.1
2023-01-01T11:43:48.622Z,1360
2023-01-01T11:46:24.583Z,1307.5
2023-01-01T11:48:46.169Z,1228.4
2023-01-01T11:50:54.121Z,1210.5
2023-01-01T11:53:49.919Z,1167.3
2023-01-01T11:56:31.887Z,1087.3
2023-01-01T11:58:59.696Z,1014.7
2023-01-01T12:01:13.434Z,950
2023-01-01T12:03:13.314Z,885.4
2023-01-01T12:06:01.435Z,736
2023-01-01T12:08:35.425Z,722.8
2023-01-01T12:10:55.512Z,755.5
2023-01-01T12:13:01.338Z,750
2023-01-01T12:15:55.517Z,657.9
2023-01-01T12:18:35.792Z,684.8
2023-01-01T12:21:01.585Z,719
2023-01-01T12:23:13.626Z,790.4
2023-01-01T12:25:11.705Z,866.8
2023-01-01T12:27:58.184Z,849.6
2023-01-01T12:30:30.396Z,932.8
2023-01-01T12:32:48.520Z,948.8
2023-01-01T12:34:52.677Z,969.9
2023-01-01T12:37:45.156Z,933.1
2023-01-01T12:40:24.930Z,880.3
2023-01-01T12:42:47.900Z,878
2023-01-01T12:44:58.131Z,883.8
2023-01-01T12:47:56.723Z,849.2
2023-01-01T12:50:41.387Z,818.8
2023-01-01T12:53:11.893Z,799
2023-01-01T12:55:28.299Z,772.8
2023-01-01T12:57:30.831Z,742.4
2023-01-01T13:00:21.613Z,782.4
2023-01-01T13:02:58.326Z,848.6
2023-01-01T13:05:20.705Z,912
2023-01-01T13:07:29.298Z,966.4
2023-01-01T13:10:26.197Z,967
2023-01-01T13:13:08.593Z,1010.8
2023-01-01T13:15:37.423Z,1033.2
2023-01-01T13:17:52.180Z,985.6
2023-01-01T13:19:52.746Z,897.6
2023-01-01T13:22:42.086Z,852.8
2023-01-01T13:25:16.901Z,720.6
2023-01-01T13:27:37.763Z,653.4
2023-01-01T13:29:44.623Z,642.7
2023-01-01T13:32:39.789Z,663.6
2023-01-01T13:35:20.830Z,479
2023-01-01T13:37:47.719Z,373.7
2023-01-01T13:40:00.751Z,376.1
2023-01-01T13:41:59.641Z,357.9
2023-01-01T13:44:46.903Z,295.2
2023-01-01T13:47:20.252Z,255.8
2023-01-01T13:49:39.452Z,259.2
2023-01-01T13:52:05.130Z,250
2023-01-01T13:54:38.026Z,248.8
2023-01-01T13:57:17.502Z,228.4
2023-01-01T13:59:42.827Z,228.6
2023-01-01T14:01:54.318Z,226.4
2023-01-01T14:03:51.000Z,235.7
2023-01-01T14:06:36.424Z,257.1
2023-01-01T14:09:07.609Z,262.2
2023-01-01T14:11:24.902Z,260.8
2023-01-01T14:13:29.727Z,249.4
2023-01-01T14:16:19.814Z,268.6
2023-01-01T14:18:57.130Z,250.8
2023-01-01T14:21:20.649Z,283.1
2023-01-01T14:23:29.895Z,356.6
2023-01-01T14:26:27.793Z,353.1
2023-01-01T14:29:11.611Z,395.3
2023-01-01T14:31:41.489Z,340.3
2023-01-01T14:33:56.924Z,340.4
2023-01-01T14:35:58.507Z,324
2023-01-01T14:38:48.465Z,288.4
2023-01-01T14:41:24.275Z,246.7
2023-01-01T14:43:46.157Z,263.5
2023-01-01T14:45:53.893Z,230.7
2023-01-01T14:48:49.848Z,176.6
2023-01-01T14:51:31.955Z,157.8
2023-01-01T14:53:59.934Z,114.12
2023-01-01T14:56:13.316Z,129.4
2023-01-01T14:58:13.077Z,126.8
2023-01-01T15:01:01.283Z,111.76
2023-01-01T15:03:35.198Z,97.72
2023-01-01T15:05:55.098Z,73.76
2023-01-01T15:08:01.113Z,80.5
2023-01-01T15:10:55.466Z,91.92
2023-01-01T15:13:35.587Z,86.04
2023-01-01T15:16:01.731Z,75.78
2023-01-01T15:18:13.700Z,70.68
2023-01-01T15:20:11.559Z,60.32
2023-01-01T15:22:57.949Z,49.64
2023-01-01T15:25:30.202Z,46.76
2023-01-01T15:27:48.197Z,39.42
2023-01-01T15:29:52.368Z,29.57
2023-01-01T15:32:44.924Z,21.95
2023-01-01T15:35:27.799Z,16.69
2023-01-01T15:37:47.581Z,10.53
2023-01-01T15:39:57.922Z,8.63
2023-01-01T15:42:56.502Z,7.03
2023-01-01T15:45:41.077Z,4.61
2023-01-01T15:48:11.206Z,3.54
2023-01-01T15:50:27.678Z,2.32
2023-01-01T15:52:29.905Z,1.87
2023-01-01T15:55:20.647Z,1.19
2023-01-01T15:57:57.245Z,0.91
2023-01-01T16:00:19.937Z,0.59
2023-01-01T16:02:28.680Z,0.46
2023-01-01T16:05:25.603Z,0.3
2023-01-01T16:08:08.452Z,0.2
2023-01-01T16:10:36.996Z,0.17
2023-01-01T16:12:51.709Z,0.14
2023-01-01T16:14:52.181Z,0.12
2023-01-01T16:17:41.060Z,0.1
2023-01-01T16:20:16.113Z,0.08
2023-01-01T16:24:44.066Z,0.07
2023-01-01T16:49:35.791Z,0.06
2023-01-01T16:52:15.039Z,0.07
2023-01-01T16:58:49.956Z,0.08
2023-01-01T17:04:04.582Z,0.07
2023-01-01T17:13:53.355Z,0.08
2023-01-01T17:18:47.112Z,0.07
2023-01-01T17:36:19.560Z,0.06
2023-01-01T17:38:40.249Z,0.07
2023-01-01T18:00:47.438Z,0.06
2023-01-01T18:05:47.301Z,0.07
2023-01-01T19:22:22.697Z,0.08
2023-01-01T19:25:03.648Z,0.05
2023-01-01T19:27:30.412Z,0.04
2023-01-01T19:41:30.411Z,0.03
2023-01-01T19:44:08.720Z,0.04
2023-01-01T19:48:30.313Z,0.03
2023-01-01T19:51:24.573Z,0.04
2023-01-01T19:58:42.955Z,0.03
2023-01-01T20:28:40.292Z,0.04
2023-01-01T20:30:56.597Z,0.03
2023-01-01T20:40:48.982Z,0.04
2023-01-01T20:45:54.278Z,0.03
2023-01-01T21:08:07.602Z,0.04
2023-01-01T21:15:28.629Z,0.03
2023-01-01T21:25:40.793Z,0.04
2023-01-01T21:27:12.366Z,0.03
2023-01-01T21:44:35.801Z,0.02
2023-01-01T23:13:14.947Z,0.01
2023-01-01T23:27:57.502Z,0.02
2023-01-01T23:30:48.274Z,0.01
2023-01-01T23:35:46.877Z,0.02
2023-01-01T23:48:18.736Z,0.01
